Terminal Aerodrome Forecast
Issued by NWS Austin/San Antonio, TX

Home | Current Version | Previous Version | Text Only | Print | Product List | Glossary On
Versions: 1 2 3 4 5 6 7 8 9 10 11 12 13 14 15
000
FTUS44 KEWX 290900 AAB
TAFAUS
TAF AMD
KAUS 290954Z 2910/3012 15004KT 2SM BR SCT003
      TEMPO 2911/2915 1SM BR BKN003
     FM291600 24005KT P6SM FEW010 SCT100 SCT250
     FM292100 01005KT P6SM BKN100
     FM292300 01015KT P6SM BKN100=

USA.gov is the U.S. government's official web portal to all federal, state and local government web resources and services.